Cantil, CA (93519)

3:23 AM PDT on September 03, 2015 (GMT -0700)
APRSWXNET | | Change Station
CLOSE
Current Station
Personal Weather Station
Location: Cantil, CA
Elevation: 2158 ft
Nearby Weather Stations

Elev 2158 ft 35.30 °N, 118.00 °W | Updated 23 minutes ago

Clear
Clear
74 °F
Feels Like 77 °F
N
12
Wind Variable Wind from WNW
Gusts 16.0 mph

Today
High -- | Low -- °F
--% Chance of Precip.
Yesterday
High -- | Low -- °F
Precip. -- in
6:25 AM 7:16 PM
Waning Gibbous, 71% visible
Pressure 29.92 in
Visibility 10.0 miles
Clouds Clear
Heat Index 77 °F
Dew Point 47 °F
Humidity 38%
Rainfall in
Snow Depth Not available.
UV 0 out of 12
Pollen 8.60 out of 12
Air Quality Not available.
Flu Activity Not available.
METAR KMHV 031000Z AUTO 25007KT 10SM CLR 19/07 A2992 RMK A01
Pressure 29.92 in
Visibility 10.0 miles
Clouds Clear
Heat Index 77 °F
Dew Point 47 °F
Humidity 38%
Rainfall in
Snow Depth Not available.
UV 0 out of 12
Pollen 8.60 out of 12
Air Quality Not available.
Flu Activity Not available.
METAR KMHV 031000Z AUTO 25007KT 10SM CLR 19/07 A2992 RMK A01

10-Day Weather Forecast

×

Almanac

Astronomy

Sep. 03, 2015 Rise Set
Actual Time
Civil Twilight
Nautical Twilight
Astronomical Twilight
Moon
Length of Visible Light
Length of Day
Tomorrow will be .
, % of the Moon is Illuminated

Today's Extremes

State Highs State Lows

Community

WunderPhotos

Upload Photos

1,851,929 photos uploaded!

WunderBlogs® & News

Nearby

Air Quality

  Air Quality AQ Index Pollutant
Not available.

Snow Depth

Station Depth Elevation

Earthquake Activity

City Distance Mag. Time & Date
Minimum magnitude displayed is 2.5.

Coastal Water Temperatures

Place Temperature

Stations

Nearby Weather Stations

Station Location Temp. Windchill Dew Point Humidity Wind Precip. Elev Updated Type